createdAt,value
2024-05-09T00:01:49.743Z,11.96
2024-05-09T00:06:02.171Z,11.97
2024-05-09T00:10:22.634Z,11.93
2024-05-09T00:14:41.377Z,11.95
2024-05-09T00:18:53.892Z,11.89
2024-05-09T00:23:07.433Z,11.86
2024-05-09T00:27:20.702Z,11.86
2024-05-09T00:31:32.925Z,11.81
2024-05-09T00:35:45.114Z,11.77
2024-05-09T00:39:57.345Z,11.72
2024-05-09T00:44:09.614Z,11.65
2024-05-09T00:48:21.994Z,11.60
2024-05-09T00:52:34.451Z,11.57
2024-05-09T00:56:46.656Z,11.57
2024-05-09T01:01:02.068Z,11.58
2024-05-09T01:05:14.529Z,11.51
2024-05-09T01:09:26.846Z,11.56
2024-05-09T01:13:39.082Z,11.60
2024-05-09T01:17:51.817Z,11.50
2024-05-09T01:22:04.587Z,11.52
2024-05-09T01:26:17.040Z,11.62
2024-05-09T01:30:34.688Z,11.61
2024-05-09T01:34:49.172Z,11.61
2024-05-09T01:39:01.407Z,11.60
2024-05-09T01:43:13.693Z,11.60
2024-05-09T01:47:26.150Z,11.57
2024-05-09T01:51:38.479Z,11.48
2024-05-09T01:55:50.718Z,11.55
2024-05-09T02:00:06.003Z,11.52
2024-05-09T02:04:22.677Z,11.50
2024-05-09T02:08:35.107Z,11.54
2024-05-09T02:12:47.398Z,11.49
2024-05-09T02:16:59.645Z,11.43
2024-05-09T02:21:11.944Z,11.39
2024-05-09T02:25:26.996Z,11.36
2024-05-09T02:29:39.219Z,11.18
2024-05-09T02:33:52.286Z,11.25
2024-05-09T02:38:04.986Z,11.22
2024-05-09T02:42:17.320Z,11.29
2024-05-09T02:46:29.501Z,11.26
2024-05-09T02:50:42.348Z,11.22
2024-05-09T02:54:54.579Z,11.19
2024-05-09T02:59:06.794Z,11.19
2024-05-09T03:03:19.383Z,11.13
2024-05-09T03:07:31.797Z,11.09
2024-05-09T03:11:44.118Z,11.01
2024-05-09T03:15:56.361Z,11.06
2024-05-09T03:20:17.382Z,11.04
2024-05-09T03:24:35.705Z,11.03
2024-05-09T03:28:47.949Z,10.97
2024-05-09T03:33:00.347Z,10.87
2024-05-09T03:37:14.239Z,10.91
2024-05-09T03:41:26.482Z,10.89
2024-05-09T03:45:38.730Z,10.86
2024-05-09T03:49:50.918Z,10.74
2024-05-09T03:54:03.061Z,10.83
2024-05-09T03:58:15.415Z,10.80
2024-05-09T04:02:27.686Z,10.77
2024-05-09T04:06:39.890Z,10.75
2024-05-09T04:10:52.090Z,10.72
2024-05-09T04:15:04.632Z,10.78
2024-05-09T04:19:17.016Z,10.81
2024-05-09T04:23:29.265Z,10.85
2024-05-09T04:27:41.489Z,10.89
2024-05-09T04:31:53.807Z,10.91
2024-05-09T04:36:07.287Z,11.03
2024-05-09T04:40:28.080Z,11.12
2024-05-09T04:44:45.428Z,11.22
2024-05-09T04:48:57.672Z,11.84
2024-05-09T04:53:11.320Z,12.88
2024-05-09T04:57:23.920Z,13.94
2024-05-09T05:01:36.249Z,14.69
2024-05-09T05:05:48.677Z,15.68
2024-05-09T05:10:01.111Z,16.46
2024-05-09T05:14:13.392Z,17.19
2024-05-09T05:18:27.305Z,17.67
2024-05-09T05:22:43.081Z,18.26
2024-05-09T05:26:55.313Z,18.91
2024-05-09T05:31:07.594Z,19.48
2024-05-09T05:35:19.864Z,19.93
2024-05-09T05:39:32.103Z,20.32
2024-05-09T05:43:44.383Z,20.86
2024-05-09T05:47:56.924Z,21.41
2024-05-09T05:52:12.348Z,21.62
2024-05-09T05:56:24.642Z,22.05
2024-05-09T06:00:39.293Z,22.43
2024-05-09T06:04:53.039Z,22.77
2024-05-09T06:09:05.393Z,23.15
2024-05-09T06:13:17.592Z,23.33
2024-05-09T06:17:29.992Z,23.73
2024-05-09T06:21:42.334Z,24.19
2024-05-09T06:25:54.674Z,24.59
2024-05-09T06:30:09.950Z,24.86
2024-05-09T06:34:25.425Z,24.87
2024-05-09T06:38:38.147Z,25.05
2024-05-09T06:42:50.534Z,25.66
2024-05-09T06:47:02.892Z,25.92
2024-05-09T06:51:40.613Z,26.46
2024-05-09T06:55:53.068Z,26.75
2024-05-09T07:00:08.222Z,27.19
2024-05-09T07:04:22.502Z,27.75
2024-05-09T07:08:34.889Z,27.78
2024-05-09T07:12:47.223Z,27.75
2024-05-09T07:16:59.745Z,28.04
2024-05-09T07:21:12.125Z,28.28
2024-05-09T07:25:25.283Z,28.46
2024-05-09T07:29:38.660Z,28.93
2024-05-09T07:33:51.222Z,29.13
2024-05-09T07:38:03.539Z,29.37
2024-05-09T07:42:15.892Z,29.26
2024-05-09T07:47:36.874Z,29.94
2024-05-09T07:53:00.888Z,30.33
2024-05-09T07:55:34.803Z,30.43
2024-05-09T07:59:47.024Z,31.07
2024-05-09T08:03:59.347Z,31.33
2024-05-09T08:08:11.639Z,31.60
2024-05-09T08:12:23.830Z,31.81
2024-05-09T08:16:36.054Z,31.97
2024-05-09T08:20:49.765Z,32.18
2024-05-09T08:25:02.004Z,32.39
2024-05-09T08:29:14.739Z,32.61
2024-05-09T08:33:27.087Z,32.70
2024-05-09T08:37:40.687Z,32.44
2024-05-09T08:41:53.128Z,32.31
2024-05-09T08:46:07.370Z,32.45
2024-05-09T08:50:32.055Z,32.50
2024-05-09T08:54:50.722Z,32.67
2024-05-09T08:59:04.946Z,33.13
2024-05-09T09:03:25.320Z,33.53
2024-05-09T09:07:40.517Z,33.39
2024-05-09T09:11:52.778Z,33.82
2024-05-09T09:16:05.289Z,34.20
2024-05-09T09:20:23.254Z,34.47
2024-05-09T09:24:41.406Z,34.49
2024-05-09T09:28:53.763Z,34.43
2024-05-09T09:33:06.859Z,34.48
2024-05-09T09:37:23.823Z,34.56
2024-05-09T09:41:38.473Z,34.60
2024-05-09T09:45:53.223Z,34.52
2024-05-09T09:50:12.111Z,34.97
2024-05-09T09:54:29.934Z,35.17
2024-05-09T09:58:44.099Z,35.07
2024-05-09T10:02:56.364Z,35.11
2024-05-09T10:07:11.111Z,35.09
2024-05-09T10:11:24.859Z,35.07
2024-05-09T10:15:52.815Z,34.88
2024-05-09T10:20:14.461Z,34.80
2024-05-09T10:24:47.833Z,34.73
2024-05-09T10:29:03.147Z,34.73
2024-05-09T10:33:20.356Z,34.65
2024-05-09T10:37:33.278Z,34.42
2024-05-09T10:41:45.475Z,34.43
2024-05-09T10:45:57.726Z,34.20
2024-05-09T10:50:18.372Z,34.25
2024-05-09T10:54:38.074Z,34.00
2024-05-09T10:58:53.417Z,33.58
2024-05-09T11:03:06.111Z,33.89
2024-05-09T11:07:21.438Z,34.02
2024-05-09T11:11:34.005Z,33.96
2024-05-09T11:15:46.249Z,33.85
2024-05-09T11:19:58.511Z,33.76
2024-05-09T11:24:11.780Z,33.87
2024-05-09T11:28:26.391Z,33.82
2024-05-09T11:32:38.705Z,34.00
2024-05-09T11:36:51.031Z,34.10
2024-05-09T11:41:04.134Z,34.14
2024-05-09T11:45:16.498Z,33.73
2024-05-09T11:49:28.859Z,33.08
2024-05-09T11:53:41.104Z,32.59
2024-05-09T11:57:53.442Z,32.43
2024-05-09T12:02:05.852Z,32.09
2024-05-09T12:06:18.458Z,31.75
2024-05-09T12:10:34.135Z,31.26
2024-05-09T12:14:48.014Z,30.91
2024-05-09T12:19:00.208Z,30.65
2024-05-09T12:23:12.420Z,30.03
2024-05-09T12:27:24.617Z,29.78
2024-05-09T12:31:36.841Z,29.68
2024-05-09T12:35:50.907Z,29.43
2024-05-09T12:40:04.927Z,29.34
2024-05-09T12:44:18.883Z,29.25
2024-05-09T12:48:31.212Z,29.16
2024-05-09T12:52:43.449Z,29.13
2024-05-09T12:56:55.623Z,28.98
2024-05-09T13:01:10.926Z,28.84
2024-05-09T13:05:23.426Z,28.97
2024-05-09T13:09:36.020Z,29.11
2024-05-09T13:13:48.275Z,28.97
2024-05-09T13:18:03.102Z,28.86
2024-05-09T13:22:16.051Z,28.74
2024-05-09T13:26:28.274Z,28.51
2024-05-09T13:30:42.131Z,28.07
2024-05-09T13:34:54.902Z,27.83
2024-05-09T13:39:07.112Z,27.89
2024-05-09T13:43:21.828Z,27.89
2024-05-09T13:47:34.515Z,27.92
2024-05-09T13:51:46.777Z,27.80
2024-05-09T13:55:58.976Z,27.72
2024-05-09T14:00:22.917Z,27.51
2024-05-09T14:04:43.996Z,27.15
2024-05-09T14:08:56.350Z,26.79
2024-05-09T14:13:08.612Z,26.58
2024-05-09T14:17:21.128Z,26.71
2024-05-09T14:21:33.434Z,26.47
2024-05-09T14:25:48.179Z,26.37
2024-05-09T14:30:04.132Z,26.27
2024-05-09T14:34:18.363Z,26.33
2024-05-09T14:38:30.765Z,26.26
2024-05-09T14:42:43.033Z,26.28
2024-05-09T14:46:55.236Z,26.18
2024-05-09T14:51:07.477Z,26.21
2024-05-09T14:55:19.796Z,26.09
2024-05-09T14:59:32.013Z,25.94
2024-05-09T15:03:44.492Z,25.85
2024-05-09T15:07:58.230Z,25.66
2024-05-09T15:12:10.443Z,25.55
2024-05-09T15:17:14.209Z,25.67
2024-05-09T15:21:26.408Z,25.70
2024-05-09T15:25:38.619Z,25.63
2024-05-09T15:29:50.823Z,25.65
2024-05-09T15:34:03.204Z,25.67
2024-05-09T15:38:16.775Z,25.75
2024-05-09T15:42:28.996Z,25.49
2024-05-09T15:46:41.286Z,25.18
2024-05-09T15:50:53.500Z,25.20
2024-05-09T15:55:06.596Z,25.22
2024-05-09T15:59:18.924Z,25.33
2024-05-09T16:03:31.379Z,25.08
2024-05-09T16:07:43.708Z,25.03
2024-05-09T16:11:56.269Z,24.98
2024-05-09T16:16:08.776Z,24.93
2024-05-09T16:26:32.832Z,24.69
2024-05-09T17:00:47.287Z,23.79
2024-05-09T17:05:03.302Z,23.52
2024-05-09T17:32:37.018Z,22.34
2024-05-09T17:36:49.386Z,22.29
2024-05-09T17:41:01.677Z,22.24
2024-05-09T17:45:15.142Z,22.15
2024-05-09T17:49:27.476Z,22.01
2024-05-09T17:53:43.160Z,21.86
2024-05-09T17:57:55.473Z,21.68
2024-05-09T18:02:08.049Z,21.65
2024-05-09T18:06:20.375Z,21.59
2024-05-09T18:10:37.007Z,21.58
2024-05-09T18:14:51.609Z,21.33
2024-05-09T18:19:04.134Z,21.44
2024-05-09T18:23:18.311Z,21.27
2024-05-09T18:27:31.217Z,21.35
2024-05-09T18:31:43.594Z,21.32
2024-05-09T18:35:55.887Z,21.07
2024-05-09T18:40:12.196Z,21.03
2024-05-09T18:44:31.441Z,20.89
2024-05-09T18:48:43.885Z,20.84
2024-05-09T18:52:56.308Z,20.69
2024-05-09T18:57:08.798Z,20.49
2024-05-09T19:01:21.230Z,20.28
2024-05-09T19:05:35.907Z,20.26
2024-05-09T19:09:55.029Z,20.23
2024-05-09T19:14:07.706Z,20.12
2024-05-09T19:18:20.317Z,20.00
2024-05-09T19:22:32.769Z,20.00
2024-05-09T19:26:45.904Z,19.74
2024-05-09T19:30:58.373Z,19.64
2024-05-09T19:35:10.759Z,19.45
2024-05-09T19:39:24.007Z,19.29
2024-05-09T19:43:36.575Z,19.25
2024-05-09T19:47:49.350Z,19.08
2024-05-09T19:52:01.873Z,18.93
2024-05-09T19:56:14.379Z,18.90
2024-05-09T20:00:32.809Z,18.88
2024-05-09T20:04:48.973Z,18.78
2024-05-09T20:09:01.372Z,18.61
2024-05-09T20:13:14.319Z,18.60
2024-05-09T20:17:26.708Z,18.49
2024-05-09T20:21:43.160Z,18.44
2024-05-09T20:25:55.540Z,18.42
2024-05-09T20:30:12.221Z,18.32
2024-05-09T20:34:27.133Z,18.20
2024-05-09T20:38:39.439Z,18.18
2024-05-09T20:42:51.726Z,18.06
2024-05-09T20:47:04.088Z,18.01
2024-05-09T20:51:16.403Z,17.94
2024-05-09T20:55:29.606Z,17.87
2024-05-09T20:59:41.871Z,17.83
2024-05-09T21:03:54.372Z,17.81
2024-05-09T21:08:07.227Z,17.85
2024-05-09T21:12:19.479Z,17.81
2024-05-09T21:16:34.156Z,17.74
2024-05-09T21:20:46.580Z,17.78
2024-05-09T21:24:58.917Z,17.76
2024-05-09T21:29:12.156Z,17.79
2024-05-09T21:33:24.753Z,17.72
2024-05-09T21:37:44.339Z,17.66
2024-05-09T21:42:01.689Z,17.64
2024-05-09T21:46:14.022Z,17.53
2024-05-09T21:50:36.298Z,17.47
2024-05-09T21:54:52.595Z,17.37
2024-05-09T21:59:04.873Z,17.29
2024-05-09T22:03:17.341Z,17.21
2024-05-09T22:07:29.800Z,17.21
2024-05-09T22:11:42.187Z,17.11
2024-05-09T22:15:54.566Z,17.02
2024-05-09T22:20:14.720Z,16.95
2024-05-09T22:24:30.680Z,16.85
2024-05-09T22:28:43.147Z,16.85
2024-05-09T22:32:55.555Z,16.74
2024-05-09T22:37:07.996Z,16.68
2024-05-09T22:41:20.331Z,16.64
2024-05-09T22:45:32.865Z,16.60
2024-05-09T22:49:45.321Z,16.57
2024-05-09T22:53:57.736Z,16.52
2024-05-09T22:58:10.176Z,16.46
2024-05-09T23:02:22.577Z,16.39
2024-05-09T23:06:34.947Z,16.31
2024-05-09T23:10:47.487Z,16.23
2024-05-09T23:15:00.104Z,16.21
2024-05-09T23:19:12.513Z,16.12
2024-05-09T23:23:24.837Z,16.09
2024-05-09T23:27:37.309Z,16.12
2024-05-09T23:31:49.831Z,16.04
2024-05-09T23:36:02.689Z,16.12
2024-05-09T23:40:18.827Z,16.08
2024-05-09T23:44:35.031Z,16.06
2024-05-09T23:48:47.505Z,16.03
2024-05-09T23:52:59.906Z,15.94
2024-05-09T23:57:15.226Z,15.92
